Terminal Aerodrome Forecast
Issued by NWS Dodge City, KS

Home | Current Version | Previous Version | Text Only | Print | Product List | Glossary On
Versions: 1 2 3 4 5 6 7 8 9 10 11 12 13 14 15 16
000
FTUS43 KDDC 151209 AAA
TAFDDC
TAF AMD
KDDC 151209Z 1512/1612 01014KT P6SM SKC
     FM151500 01015G25KT P6SM SKC
     FM151800 01010KT P6SM SKC
     FM152100 VRB05KT P6SM SCT250
     FM160300 16009KT P6SM OVC200
     FM160900 17012KT P6SM SKC=

USA.gov is the U.S. government's official web portal to all federal, state and local government web resources and services.